createdAt,value
2023-08-14T00:00:49.499Z,1.20
2023-08-14T00:03:16.431Z,1.23
2023-08-14T00:05:43.129Z,1.05
2023-08-14T00:08:09.849Z,1.13
2023-08-14T00:10:37.165Z,1.00
2023-08-14T00:13:03.845Z,1.10
2023-08-14T00:15:30.634Z,1.17
2023-08-14T00:17:57.207Z,1.30
2023-08-14T00:20:23.704Z,1.42
2023-08-14T00:22:50.174Z,1.08
2023-08-14T00:25:16.627Z,1.20
2023-08-14T00:27:43.133Z,1.20
2023-08-14T00:30:09.766Z,2.17
2023-08-14T00:32:36.237Z,1.10
2023-08-14T00:35:03.768Z,1.33
2023-08-14T00:37:43.670Z,1.17
2023-08-14T00:40:11.641Z,1.20
2023-08-14T00:42:39.822Z,1.25
2023-08-14T00:45:07.549Z,1.17
2023-08-14T00:47:35.610Z,1.00
2023-08-14T00:50:06.727Z,1.13
2023-08-14T00:52:36.380Z,1.50
2023-08-14T00:55:08.852Z,1.30
2023-08-14T00:57:36.416Z,1.13
2023-08-14T01:00:08.442Z,1.20
2023-08-14T01:02:35.844Z,1.13
2023-08-14T01:05:02.441Z,0.93
2023-08-14T01:07:31.103Z,1.10
2023-08-14T01:09:58.324Z,1.10
2023-08-14T01:12:27.773Z,1.02
2023-08-14T01:15:02.530Z,1.10
2023-08-14T01:17:33.305Z,1.35
2023-08-14T01:20:01.209Z,1.73
2023-08-14T01:22:55.508Z,1.27
2023-08-14T01:25:31.510Z,1.10
2023-08-14T01:27:59.475Z,1.30
2023-08-14T01:30:26.247Z,1.05
2023-08-14T01:32:53.632Z,1.17
2023-08-14T01:35:22.731Z,1.15
2023-08-14T01:38:08.056Z,1.25
2023-08-14T01:40:46.286Z,1.30
2023-08-14T01:43:23.149Z,1.23
2023-08-14T01:45:50.010Z,1.20
2023-08-14T01:48:16.607Z,1.10
2023-08-14T01:50:44.415Z,1.20
2023-08-14T01:53:11.069Z,1.20
2023-08-14T01:55:37.528Z,1.50
2023-08-14T01:58:04.214Z,1.10
2023-08-14T02:00:33.192Z,1.20
2023-08-14T02:03:00.104Z,1.35
2023-08-14T02:05:26.741Z,1.25
2023-08-14T02:07:53.228Z,1.10
2023-08-14T02:10:19.725Z,1.23
2023-08-14T02:12:46.275Z,1.05
2023-08-14T02:15:12.813Z,1.30
2023-08-14T02:17:39.580Z,1.15
2023-08-14T02:20:06.740Z,0.95
2023-08-14T02:22:33.236Z,1.17
2023-08-14T02:24:59.708Z,1.10
2023-08-14T02:27:26.118Z,1.27
2023-08-14T02:29:52.520Z,1.30
2023-08-14T02:32:19.242Z,1.17
2023-08-14T02:34:48.158Z,1.10
2023-08-14T02:37:16.255Z,2.08
2023-08-14T02:39:43.122Z,1.30
2023-08-14T02:42:09.810Z,1.20
2023-08-14T02:44:37.084Z,0.90
2023-08-14T02:47:04.564Z,0.90
2023-08-14T02:49:31.476Z,1.10
2023-08-14T02:51:58.286Z,1.13
2023-08-14T02:54:24.975Z,0.90
2023-08-14T02:56:54.294Z,0.82
2023-08-14T02:59:22.078Z,1.00
2023-08-14T03:01:48.616Z,1.10
2023-08-14T03:04:16.874Z,1.00
2023-08-14T03:06:43.359Z,0.90
2023-08-14T03:09:10.991Z,1.10
2023-08-14T03:11:37.508Z,0.90
2023-08-14T03:14:05.616Z,1.23
2023-08-14T03:16:32.166Z,0.80
2023-08-14T03:18:58.555Z,1.05
2023-08-14T03:21:25.035Z,1.08
2023-08-14T03:23:51.484Z,0.93
2023-08-14T03:26:17.953Z,0.88
2023-08-14T03:28:44.469Z,1.10
2023-08-14T03:31:10.980Z,1.20
2023-08-14T03:33:37.471Z,1.00
2023-08-14T03:36:04.137Z,1.20
2023-08-14T03:38:32.076Z,1.10
2023-08-14T03:40:59.458Z,0.90
2023-08-14T03:43:26.049Z,1.40
2023-08-14T03:45:52.461Z,1.45
2023-08-14T03:48:19.049Z,1.13
2023-08-14T03:50:47.692Z,1.25
2023-08-14T03:53:14.526Z,1.90
2023-08-14T03:55:41.637Z,1.20
2023-08-14T03:58:08.295Z,1.10
2023-08-14T04:00:35.765Z,1.00
2023-08-14T04:03:03.185Z,1.00
2023-08-14T04:05:30.070Z,0.90
2023-08-14T04:07:56.683Z,1.10
2023-08-14T04:10:24.588Z,1.40
2023-08-14T04:12:51.943Z,1.42
2023-08-14T04:15:18.752Z,1.38
2023-08-14T04:17:45.315Z,1.20
2023-08-14T04:20:12.232Z,1.30
2023-08-14T04:22:38.924Z,1.45
2023-08-14T04:25:05.956Z,1.38
2023-08-14T04:27:32.626Z,1.20
2023-08-14T04:29:59.316Z,1.30
2023-08-14T04:32:26.705Z,1.23
2023-08-14T04:34:53.283Z,1.27
2023-08-14T04:37:19.824Z,1.17
2023-08-14T04:39:46.274Z,1.13
2023-08-14T04:42:12.737Z,1.10
2023-08-14T04:44:39.207Z,1.40
2023-08-14T04:47:05.844Z,1.48
2023-08-14T04:49:32.304Z,1.13
2023-08-14T04:51:58.859Z,1.20
2023-08-14T04:54:28.199Z,1.05
2023-08-14T04:56:54.898Z,1.40
2023-08-14T04:59:21.453Z,1.40
2023-08-14T05:01:47.943Z,1.60
2023-08-14T05:04:14.569Z,1.52
2023-08-14T05:06:41.560Z,1.50
2023-08-14T05:09:23.985Z,1.60
2023-08-14T05:11:52.679Z,2.45
2023-08-14T05:14:20.201Z,1.58
2023-08-14T05:16:47.502Z,2.13
2023-08-14T05:19:14.404Z,2.47
2023-08-14T05:21:41.037Z,2.45
2023-08-14T05:24:07.960Z,2.67
2023-08-14T05:26:34.645Z,2.92
2023-08-14T05:29:01.278Z,3.10
2023-08-14T05:31:27.852Z,3.72
2023-08-14T05:33:54.423Z,3.50
2023-08-14T05:36:21.642Z,3.75
2023-08-14T05:38:48.659Z,3.70
2023-08-14T05:41:15.249Z,3.92
2023-08-14T05:43:41.742Z,4.13
2023-08-14T05:46:08.464Z,4.10
2023-08-14T05:48:35.143Z,3.92
2023-08-14T05:51:01.688Z,3.00
2023-08-14T05:53:28.293Z,3.65
2023-08-14T05:55:54.886Z,3.58
2023-08-14T05:58:21.433Z,3.30
2023-08-14T06:00:48.559Z,2.97
2023-08-14T06:03:20.267Z,3.00
2023-08-14T06:05:52.427Z,2.92
2023-08-14T06:08:19.130Z,3.42
2023-08-14T06:10:45.715Z,3.97
2023-08-14T06:13:12.401Z,4.40
2023-08-14T06:15:39.184Z,4.25
2023-08-14T06:18:06.086Z,4.32
2023-08-14T06:20:32.624Z,4.68
2023-08-14T06:22:59.211Z,4.85
2023-08-14T06:25:29.830Z,4.85
2023-08-14T06:27:56.500Z,4.63
2023-08-14T06:30:24.104Z,5.10
2023-08-14T06:32:50.779Z,5.40
2023-08-14T06:35:18.743Z,6.20
2023-08-14T06:37:45.246Z,5.65
2023-08-14T06:40:12.425Z,5.10
2023-08-14T06:42:39.100Z,5.70
2023-08-14T06:45:05.943Z,5.97
2023-08-14T06:47:32.610Z,5.82
2023-08-14T06:49:59.207Z,5.70
2023-08-14T06:52:25.786Z,5.90
2023-08-14T06:54:52.265Z,6.32
2023-08-14T06:57:19.001Z,6.13
2023-08-14T06:59:46.804Z,6.47
2023-08-14T07:02:14.046Z,6.43
2023-08-14T07:04:40.678Z,6.53
2023-08-14T07:07:07.208Z,7.13
2023-08-14T07:09:34.247Z,7.00
2023-08-14T07:12:00.786Z,7.38
2023-08-14T07:14:30.588Z,7.25
2023-08-14T07:16:57.480Z,7.05
2023-08-14T07:19:24.294Z,7.15
2023-08-14T07:21:50.917Z,7.13
2023-08-14T07:24:17.462Z,7.03
2023-08-14T07:26:43.981Z,6.97
2023-08-14T07:29:10.493Z,6.95
2023-08-14T07:31:37.027Z,7.38
2023-08-14T07:34:03.658Z,7.53
2023-08-14T07:36:30.237Z,7.15
2023-08-14T07:38:56.963Z,7.22
2023-08-14T07:41:23.622Z,7.38
2023-08-14T07:43:50.130Z,6.53
2023-08-14T07:46:18.546Z,6.32
2023-08-14T07:48:48.117Z,7.22
2023-08-14T07:51:17.653Z,6.50
2023-08-14T07:53:44.129Z,6.28
2023-08-14T07:56:10.652Z,6.47
2023-08-14T07:58:37.363Z,7.05
2023-08-14T08:01:04.515Z,6.55
2023-08-14T08:03:30.967Z,6.38
2023-08-14T08:05:57.456Z,6.30
2023-08-14T08:08:24.124Z,5.93
2023-08-14T08:10:50.824Z,6.95
2023-08-14T08:13:17.432Z,6.40
2023-08-14T08:15:44.013Z,5.63
2023-08-14T08:18:10.598Z,4.30
2023-08-14T08:20:37.199Z,4.07
2023-08-14T08:23:05.154Z,5.03
2023-08-14T08:25:31.841Z,5.50
2023-08-14T08:27:58.293Z,4.57
2023-08-14T08:30:24.847Z,4.20
2023-08-14T08:32:51.459Z,4.13
2023-08-14T08:35:17.896Z,3.97
2023-08-14T08:37:44.438Z,3.67
2023-08-14T08:40:11.318Z,3.55
2023-08-14T08:42:39.292Z,3.45
2023-08-14T08:45:07.509Z,3.40
2023-08-14T08:47:39.705Z,2.97
2023-08-14T08:50:08.989Z,3.13
2023-08-14T08:52:35.933Z,2.90
2023-08-14T08:55:03.658Z,2.92
2023-08-14T08:57:30.467Z,3.13
2023-08-14T08:59:59.851Z,3.38
2023-08-14T09:02:27.266Z,2.67
2023-08-14T09:04:53.965Z,2.92
2023-08-14T09:07:20.629Z,2.42
2023-08-14T09:09:47.246Z,3.55
2023-08-14T09:12:13.818Z,2.88
2023-08-14T09:14:45.599Z,2.60
2023-08-14T09:17:14.123Z,2.60
2023-08-14T09:19:42.574Z,2.50
2023-08-14T09:22:12.264Z,2.22
2023-08-14T09:24:44.858Z,2.50
2023-08-14T09:27:11.541Z,2.25
2023-08-14T09:29:38.289Z,2.42
2023-08-14T09:32:04.823Z,2.33
2023-08-14T09:34:33.860Z,2.90
2023-08-14T09:37:00.376Z,2.22
2023-08-14T09:39:26.979Z,2.38
2023-08-14T09:41:55.769Z,2.90
2023-08-14T09:44:30.952Z,2.78
2023-08-14T09:47:00.921Z,2.83
2023-08-14T09:49:28.552Z,2.60
2023-08-14T09:51:58.703Z,2.95
2023-08-14T09:54:42.311Z,3.25
2023-08-14T09:57:09.744Z,3.10
2023-08-14T09:59:47.108Z,2.95
2023-08-14T10:02:17.812Z,2.80
2023-08-14T10:04:53.681Z,3.22
2023-08-14T10:07:24.252Z,2.90
2023-08-14T10:09:52.754Z,3.22
2023-08-14T10:12:24.073Z,3.25
2023-08-14T10:14:59.161Z,3.65
2023-08-14T10:17:32.934Z,4.00
2023-08-14T10:20:05.762Z,3.20
2023-08-14T10:22:34.737Z,3.08
2023-08-14T10:25:04.941Z,3.13
2023-08-14T10:27:32.181Z,3.45
2023-08-14T10:30:00.181Z,3.30
2023-08-14T10:32:28.209Z,2.80
2023-08-14T10:34:56.819Z,3.30
2023-08-14T10:37:28.047Z,2.80
2023-08-14T10:40:17.132Z,3.38
2023-08-14T10:42:47.187Z,2.40
2023-08-14T10:45:18.332Z,3.10
2023-08-14T10:47:45.680Z,2.38
2023-08-14T10:50:20.478Z,1.92
2023-08-14T10:52:53.881Z,2.22
2023-08-14T10:55:36.447Z,2.50
2023-08-14T10:58:41.909Z,2.13
2023-08-14T11:01:10.820Z,2.30
2023-08-14T11:04:13.847Z,1.80
2023-08-14T11:07:03.724Z,1.70
2023-08-14T11:09:33.724Z,1.63
2023-08-14T11:12:06.326Z,1.75
2023-08-14T11:14:36.678Z,1.45
2023-08-14T11:17:03.970Z,1.40
2023-08-14T11:19:31.056Z,1.63
2023-08-14T11:21:57.531Z,1.33
2023-08-14T11:24:25.046Z,1.27
2023-08-14T11:26:52.276Z,1.23
2023-08-14T11:29:18.803Z,1.33
2023-08-14T11:31:49.498Z,1.38
2023-08-14T11:34:17.125Z,1.42
2023-08-14T11:39:27.284Z,1.13
2023-08-14T11:41:53.809Z,1.42
2023-08-14T11:44:20.928Z,1.10
2023-08-14T11:46:49.403Z,1.30
2023-08-14T11:49:17.213Z,1.40
2023-08-14T11:51:45.168Z,1.40
2023-08-14T11:54:12.118Z,1.30
2023-08-14T11:56:38.748Z,1.40
2023-08-14T11:59:08.880Z,1.48
2023-08-14T12:01:37.704Z,1.38
2023-08-14T12:04:05.999Z,1.33
2023-08-14T12:06:33.394Z,1.42
2023-08-14T12:09:00.581Z,1.10
2023-08-14T12:11:29.087Z,1.30
2023-08-14T12:13:55.548Z,1.30
2023-08-14T12:16:23.878Z,1.50
2023-08-14T12:18:51.916Z,1.17
2023-08-14T12:21:18.428Z,1.27
2023-08-14T12:23:48.925Z,1.30
2023-08-14T12:26:16.532Z,1.15
2023-08-14T12:28:44.144Z,1.20
2023-08-14T12:31:11.629Z,1.60
2023-08-14T12:33:41.402Z,1.15
2023-08-14T12:36:08.909Z,1.42
2023-08-14T12:38:35.366Z,1.73
2023-08-14T12:41:02.290Z,1.20
2023-08-14T12:43:39.022Z,1.48
2023-08-14T12:46:10.162Z,1.23
2023-08-14T12:48:36.920Z,1.50
2023-08-14T12:51:04.685Z,1.90
2023-08-14T12:53:31.223Z,1.50
2023-08-14T12:56:03.534Z,1.45
2023-08-14T12:58:31.202Z,1.83
2023-08-14T13:01:03.821Z,1.75
2023-08-14T13:03:36.496Z,1.38
2023-08-14T13:06:05.370Z,1.50
2023-08-14T13:08:31.850Z,1.30
2023-08-14T13:10:58.380Z,1.30
2023-08-14T13:13:27.914Z,1.60
2023-08-14T13:15:54.672Z,1.23
2023-08-14T13:18:22.745Z,1.45
2023-08-14T13:20:49.427Z,1.40
2023-08-14T13:23:16.932Z,1.23
2023-08-14T13:25:43.538Z,1.40
2023-08-14T13:28:10.238Z,1.30
2023-08-14T13:30:36.840Z,1.35
2023-08-14T13:33:03.548Z,1.20
2023-08-14T13:35:30.042Z,1.45
2023-08-14T13:37:56.448Z,1.50
2023-08-14T13:40:23.630Z,1.30
2023-08-14T13:42:50.083Z,1.30
2023-08-14T13:45:19.102Z,1.60
2023-08-14T13:47:54.315Z,1.60
2023-08-14T13:50:31.740Z,1.40
2023-08-14T13:53:00.099Z,1.23
2023-08-14T13:55:29.319Z,1.58
2023-08-14T13:57:57.324Z,1.35
2023-08-14T14:00:28.602Z,1.30
2023-08-14T14:05:22.010Z,1.20
2023-08-14T14:07:54.049Z,1.17
2023-08-14T14:10:22.023Z,1.90
2023-08-14T14:13:01.446Z,1.60
2023-08-14T14:15:29.162Z,1.30
2023-08-14T14:17:55.736Z,1.50
2023-08-14T14:20:22.404Z,1.25
2023-08-14T14:22:48.779Z,1.30
2023-08-14T14:25:15.269Z,1.13
2023-08-14T14:27:41.966Z,1.27
2023-08-14T14:30:09.061Z,1.45
2023-08-14T14:32:36.201Z,1.25
2023-08-14T14:35:03.877Z,1.58
2023-08-14T14:37:30.565Z,1.23
2023-08-14T14:39:57.051Z,1.38
2023-08-14T14:42:25.489Z,1.70
2023-08-14T14:44:54.393Z,1.58
2023-08-14T14:47:23.822Z,1.33
2023-08-14T14:49:50.892Z,1.27
2023-08-14T14:52:17.378Z,1.48
2023-08-14T14:54:43.805Z,1.33
2023-08-14T14:57:10.264Z,1.30
2023-08-14T14:59:36.784Z,1.55
2023-08-14T15:02:12.230Z,1.10
2023-08-14T15:04:46.651Z,1.40
2023-08-14T15:07:13.250Z,1.30
2023-08-14T15:09:39.692Z,1.40
2023-08-14T15:12:06.500Z,1.50
2023-08-14T15:14:32.946Z,1.70
2023-08-14T15:17:00.219Z,1.27
2023-08-14T15:19:27.526Z,1.30
2023-08-14T15:21:54.023Z,1.40
2023-08-14T15:24:20.427Z,1.52
2023-08-14T15:26:46.887Z,1.50
2023-08-14T15:29:13.565Z,1.45
2023-08-14T15:31:40.059Z,1.50
2023-08-14T15:34:06.556Z,1.20
2023-08-14T15:36:33.218Z,1.73
2023-08-14T15:39:00.386Z,1.40
2023-08-14T15:41:26.981Z,1.75
2023-08-14T15:43:53.501Z,1.90
2023-08-14T15:46:19.987Z,1.30
2023-08-14T15:48:48.205Z,1.48
2023-08-14T15:51:14.693Z,1.40
2023-08-14T15:53:41.097Z,1.40
2023-08-14T15:56:07.733Z,1.23
2023-08-14T15:58:34.148Z,1.60
2023-08-14T16:01:00.655Z,1.20
2023-08-14T16:03:27.247Z,1.40
2023-08-14T16:05:55.160Z,1.33
2023-08-14T16:08:21.578Z,1.25
2023-08-14T16:10:48.084Z,1.50
2023-08-14T16:13:14.543Z,1.55
2023-08-14T16:15:41.192Z,1.42
2023-08-14T16:18:07.650Z,1.20
2023-08-14T16:20:34.092Z,1.40
2023-08-14T16:23:00.509Z,1.45
2023-08-14T16:25:26.868Z,1.30
2023-08-14T16:27:53.378Z,1.70
2023-08-14T16:30:19.879Z,1.40
2023-08-14T16:32:47.746Z,1.42
2023-08-14T16:35:14.415Z,1.20
2023-08-14T16:37:40.871Z,1.60
2023-08-14T16:40:07.911Z,1.38
2023-08-14T16:42:34.452Z,1.38
2023-08-14T16:45:01.760Z,1.48
2023-08-14T16:47:29.243Z,1.38
2023-08-14T16:49:55.757Z,1.23
2023-08-14T16:52:22.210Z,1.40
2023-08-14T16:54:48.658Z,1.30
2023-08-14T16:57:15.141Z,1.35
2023-08-14T16:59:41.591Z,1.50
2023-08-14T17:02:08.111Z,1.30
2023-08-14T17:04:34.594Z,1.35
2023-08-14T17:07:03.149Z,1.50
2023-08-14T17:09:30.442Z,1.60
2023-08-14T17:11:57.042Z,1.40
2023-08-14T17:14:23.732Z,1.40
2023-08-14T17:16:50.730Z,1.73
2023-08-14T17:19:19.078Z,1.58
2023-08-14T17:21:49.600Z,1.27
2023-08-14T17:24:17.864Z,1.30
2023-08-14T17:26:44.370Z,1.40
2023-08-14T17:29:10.856Z,1.45
2023-08-14T17:31:37.934Z,1.45
2023-08-14T17:34:04.902Z,1.48
2023-08-14T17:36:32.434Z,1.27
2023-08-14T17:39:01.406Z,1.60
2023-08-14T17:41:27.986Z,1.40
2023-08-14T17:43:54.693Z,1.58
2023-08-14T17:46:21.163Z,1.70
2023-08-14T17:48:48.017Z,1.20
2023-08-14T17:51:14.726Z,1.17
2023-08-14T17:53:41.312Z,1.65
2023-08-14T17:56:10.403Z,1.33
2023-08-14T17:58:37.119Z,1.33
2023-08-14T18:01:03.698Z,1.27
2023-08-14T18:03:30.353Z,1.33
2023-08-14T18:05:56.881Z,1.60
2023-08-14T18:08:23.395Z,1.40
2023-08-14T18:10:49.943Z,1.88
2023-08-14T18:13:16.526Z,1.92
2023-08-14T18:15:43.426Z,1.40
2023-08-14T18:18:10.478Z,1.50
2023-08-14T18:20:37.148Z,1.15
2023-08-14T18:23:04.315Z,1.50
2023-08-14T18:25:32.077Z,1.30
2023-08-14T18:27:58.886Z,1.30
2023-08-14T18:30:25.577Z,1.60
2023-08-14T18:32:52.139Z,1.42
2023-08-14T18:35:19.020Z,1.42
2023-08-14T18:37:45.630Z,1.52
2023-08-14T18:40:12.249Z,1.52
2023-08-14T18:42:38.884Z,1.52
2023-08-14T18:45:06.304Z,1.58
2023-08-14T18:47:36.545Z,1.60
2023-08-14T18:50:03.715Z,2.10
2023-08-14T18:52:35.308Z,1.52
2023-08-14T18:55:02.009Z,1.70
2023-08-14T18:57:28.501Z,1.70
2023-08-14T18:59:55.229Z,1.80
2023-08-14T19:02:21.930Z,1.73
2023-08-14T19:04:49.069Z,1.40
2023-08-14T19:07:15.641Z,1.60
2023-08-14T19:09:42.604Z,2.05
2023-08-14T19:12:09.115Z,1.65
2023-08-14T19:14:36.534Z,1.67
2023-08-14T19:17:04.245Z,1.60
2023-08-14T19:19:30.831Z,1.90
2023-08-14T19:21:57.466Z,2.08
2023-08-14T19:24:24.265Z,1.67
2023-08-14T19:26:50.928Z,1.88
2023-08-14T19:29:17.490Z,1.80
2023-08-14T19:31:44.208Z,1.80
2023-08-14T19:34:11.158Z,2.10
2023-08-14T19:36:37.763Z,1.90
2023-08-14T19:42:28.013Z,1.77
2023-08-14T19:44:54.604Z,2.33
2023-08-14T19:47:21.391Z,1.75
2023-08-14T19:49:48.287Z,1.75
2023-08-14T19:52:15.078Z,1.60
2023-08-14T19:54:41.553Z,1.90
2023-08-14T19:57:08.246Z,1.88
2023-08-14T19:59:34.719Z,1.88
2023-08-14T20:02:01.330Z,1.95
2023-08-14T20:04:27.977Z,2.10
2023-08-14T20:06:54.494Z,2.30
2023-08-14T20:09:21.167Z,2.38
2023-08-14T20:11:47.854Z,2.63
2023-08-14T20:14:22.723Z,2.08
2023-08-14T20:17:12.704Z,2.10
2023-08-14T20:19:39.258Z,2.38
2023-08-14T20:22:13.513Z,1.92
2023-08-14T20:24:42.453Z,2.17
2023-08-14T20:27:25.192Z,2.20
2023-08-14T20:29:55.298Z,2.58
2023-08-14T20:32:34.368Z,2.55
2023-08-14T20:35:04.925Z,2.22
2023-08-14T20:37:33.896Z,1.80
2023-08-14T20:40:00.485Z,1.90
2023-08-14T20:42:26.911Z,2.00
2023-08-14T20:44:53.337Z,2.10
2023-08-14T20:47:20.934Z,1.75
2023-08-14T20:49:47.547Z,2.00
2023-08-14T20:52:14.010Z,1.80
2023-08-14T20:54:40.560Z,2.42
2023-08-14T20:57:07.473Z,2.15
2023-08-14T20:59:34.053Z,1.90
2023-08-14T21:02:00.731Z,2.08
2023-08-14T21:04:27.341Z,2.20
2023-08-14T21:06:54.043Z,1.80
2023-08-14T21:09:20.806Z,1.90
2023-08-14T21:11:47.311Z,2.40
2023-08-14T21:14:14.033Z,2.53
2023-08-14T21:16:41.455Z,2.63
2023-08-14T21:19:08.425Z,2.28
2023-08-14T21:21:35.464Z,2.53
2023-08-14T21:24:02.193Z,2.70
2023-08-14T21:26:29.662Z,2.10
2023-08-14T21:28:56.307Z,2.75
2023-08-14T21:31:23.077Z,2.53
2023-08-14T21:33:50.629Z,2.72
2023-08-14T21:36:19.811Z,2.53
2023-08-14T21:38:52.656Z,2.80
2023-08-14T21:41:27.089Z,2.33
2023-08-14T21:43:55.724Z,2.17
2023-08-14T21:46:35.613Z,2.30
2023-08-14T21:49:08.226Z,2.20
2023-08-14T21:51:34.881Z,2.40
2023-08-14T21:54:01.463Z,2.13
2023-08-14T21:56:28.076Z,1.90
2023-08-14T21:58:58.646Z,1.92
2023-08-14T22:01:25.417Z,2.03
2023-08-14T22:03:52.068Z,1.88
2023-08-14T22:06:18.988Z,1.92
2023-08-14T22:08:55.517Z,2.20
2023-08-14T22:11:29.870Z,1.90
2023-08-14T22:13:57.662Z,2.17
2023-08-14T22:16:26.084Z,2.03
2023-08-14T22:18:53.360Z,2.30
2023-08-14T22:21:21.064Z,1.90
2023-08-14T22:23:48.737Z,1.88
2023-08-14T22:26:17.365Z,1.95
2023-08-14T22:28:44.134Z,2.05
2023-08-14T22:31:15.038Z,2.17
2023-08-14T22:33:58.293Z,2.17
2023-08-14T22:36:25.395Z,2.20
2023-08-14T22:38:55.654Z,2.42
2023-08-14T22:41:22.475Z,2.30
2023-08-14T22:43:49.746Z,2.20
2023-08-14T22:46:23.461Z,2.30
2023-08-14T22:48:50.266Z,2.08
2023-08-14T22:51:22.436Z,1.80
2023-08-14T22:53:51.938Z,1.90
2023-08-14T22:56:27.234Z,2.05
2023-08-14T22:58:55.636Z,2.45
2023-08-14T23:01:22.340Z,2.03
2023-08-14T23:03:52.383Z,2.60
2023-08-14T23:06:27.923Z,1.90
2023-08-14T23:08:54.649Z,2.00
2023-08-14T23:11:37.380Z,2.00
2023-08-14T23:14:06.762Z,1.85
2023-08-14T23:16:33.512Z,1.90
2023-08-14T23:19:08.688Z,2.10
2023-08-14T23:21:49.423Z,2.28
2023-08-14T23:24:16.210Z,2.05
2023-08-14T23:26:45.092Z,2.20
2023-08-14T23:29:11.764Z,2.95
2023-08-14T23:32:04.746Z,2.97
2023-08-14T23:37:06.003Z,2.63
2023-08-14T23:39:32.816Z,2.83
2023-08-14T23:42:12.676Z,2.85
2023-08-14T23:44:39.450Z,2.65
2023-08-14T23:47:06.576Z,2.72
2023-08-14T23:49:36.618Z,2.75
2023-08-14T23:52:03.340Z,2.70
2023-08-14T23:54:31.838Z,2.80
2023-08-14T23:57:12.322Z,2.85
2023-08-14T23:59:39.096Z,2.35
